createdAt,value
2023-03-05T00:00:55.991Z,12.77
2023-03-05T00:03:23.220Z,15.52
2023-03-05T00:05:57.247Z,14.85
2023-03-05T00:08:24.484Z,13.38
2023-03-05T00:11:02.669Z,15.55
2023-03-05T00:13:29.919Z,14.30
2023-03-05T00:15:57.133Z,13.95
2023-03-05T00:18:24.850Z,12.55
2023-03-05T00:20:52.104Z,14.27
2023-03-05T00:23:19.347Z,11.60
2023-03-05T00:25:46.773Z,12.00
2023-03-05T00:28:14.186Z,14.00
2023-03-05T00:30:41.849Z,14.90
2023-03-05T00:33:12.118Z,13.10
2023-03-05T00:35:41.011Z,13.43
2023-03-05T00:38:08.651Z,10.07
2023-03-05T00:40:38.105Z,12.00
2023-03-05T00:43:06.355Z,11.55
2023-03-05T00:45:33.994Z,13.48
2023-03-05T00:48:01.382Z,13.97
2023-03-05T00:50:28.558Z,11.90
2023-03-05T00:52:55.942Z,8.65
2023-03-05T00:55:23.122Z,11.13
2023-03-05T00:57:50.361Z,13.40
2023-03-05T01:00:18.004Z,9.82
2023-03-05T01:02:45.181Z,12.85
2023-03-05T01:05:14.244Z,13.10
2023-03-05T01:07:41.496Z,10.07
2023-03-05T01:10:09.563Z,11.35
2023-03-05T01:12:38.030Z,9.67
2023-03-05T01:15:06.661Z,13.93
2023-03-05T01:17:34.637Z,15.05
2023-03-05T01:20:01.839Z,7.05
2023-03-05T01:22:29.104Z,12.20
2023-03-05T01:24:56.426Z,7.07
2023-03-05T01:27:23.714Z,13.50
2023-03-05T01:29:50.896Z,13.82
2023-03-05T01:32:18.546Z,7.00
2023-03-05T01:34:45.730Z,13.07
2023-03-05T01:37:12.921Z,9.20
2023-03-05T01:39:40.114Z,14.27
2023-03-05T01:42:07.743Z,13.98
2023-03-05T01:44:35.413Z,10.80
2023-03-05T01:47:03.698Z,12.35
2023-03-05T01:49:38.441Z,10.48
2023-03-05T01:52:08.037Z,12.30
2023-03-05T01:54:40.602Z,11.80
2023-03-05T01:57:12.578Z,15.15
2023-03-05T01:59:41.952Z,15.70
2023-03-05T02:02:09.322Z,11.17
2023-03-05T02:05:00.768Z,12.15
2023-03-05T02:07:29.446Z,12.32
2023-03-05T02:09:56.564Z,11.00
2023-03-05T02:12:23.932Z,13.85
2023-03-05T02:14:59.081Z,12.43
2023-03-05T02:17:30.524Z,11.32
2023-03-05T02:20:08.392Z,13.75
2023-03-05T02:22:35.838Z,12.02
2023-03-05T02:25:15.976Z,12.13
2023-03-05T02:27:47.703Z,14.53
2023-03-05T02:30:14.989Z,12.07
2023-03-05T02:32:42.177Z,11.35
2023-03-05T02:35:09.787Z,10.80
2023-03-05T02:37:36.977Z,11.35
2023-03-05T02:40:06.098Z,10.40
2023-03-05T02:42:33.733Z,10.98
2023-03-05T02:45:02.479Z,9.70
2023-03-05T02:47:29.803Z,11.90
2023-03-05T02:49:57.629Z,9.50
2023-03-05T02:52:25.755Z,11.13
2023-03-05T02:54:53.427Z,9.57
2023-03-05T02:57:20.989Z,13.32
2023-03-05T02:59:48.748Z,9.95
2023-03-05T03:02:17.090Z,11.68
2023-03-05T03:04:45.175Z,11.03
2023-03-05T03:07:13.406Z,10.68
2023-03-05T03:09:42.800Z,11.32
2023-03-05T03:12:11.150Z,12.27
2023-03-05T03:14:41.287Z,10.18
2023-03-05T03:17:13.674Z,12.73
2023-03-05T03:19:41.933Z,14.88
2023-03-05T03:22:10.111Z,14.18
2023-03-05T03:24:38.675Z,9.48
2023-03-05T03:27:06.416Z,10.02
2023-03-05T03:29:33.779Z,10.97
2023-03-05T03:32:00.953Z,12.95
2023-03-05T03:34:28.272Z,12.05
2023-03-05T03:36:55.434Z,10.75
2023-03-05T03:39:23.661Z,13.13
2023-03-05T03:41:52.762Z,13.13
2023-03-05T03:44:21.661Z,13.15
2023-03-05T03:46:50.302Z,13.25
2023-03-05T03:49:25.409Z,11.90
2023-03-05T03:51:54.663Z,10.40
2023-03-05T03:54:22.626Z,11.77
2023-03-05T03:56:50.416Z,9.88
2023-03-05T03:59:17.559Z,12.35
2023-03-05T04:01:44.841Z,11.70
2023-03-05T04:04:12.919Z,13.15
2023-03-05T04:06:40.652Z,12.20
2023-03-05T04:09:10.953Z,13.02
2023-03-05T04:11:38.233Z,11.32
2023-03-05T04:14:05.975Z,13.45
2023-03-05T04:16:33.390Z,12.15
2023-03-05T04:19:00.521Z,12.90
2023-03-05T04:21:27.755Z,11.10
2023-03-05T04:23:54.954Z,17.25
2023-03-05T04:26:22.138Z,12.93
2023-03-05T04:28:49.494Z,16.00
2023-03-05T04:31:17.436Z,11.23
2023-03-05T04:33:44.630Z,13.30
2023-03-05T04:36:11.873Z,11.40
2023-03-05T04:38:39.089Z,12.25
2023-03-05T04:41:06.234Z,13.20
2023-03-05T04:43:33.369Z,12.27
2023-03-05T04:46:00.588Z,11.70
2023-03-05T04:48:27.746Z,10.20
2023-03-05T04:50:54.940Z,10.38
2023-03-05T04:53:22.078Z,12.93
2023-03-05T04:55:55.941Z,13.23
2023-03-05T04:58:23.815Z,11.57
2023-03-05T05:00:51.312Z,12.85
2023-03-05T05:03:18.624Z,13.02
2023-03-05T05:05:45.822Z,11.43
2023-03-05T05:08:13.062Z,10.40
2023-03-05T05:10:41.468Z,12.68
2023-03-05T05:13:08.704Z,12.77
2023-03-05T05:15:35.822Z,12.43
2023-03-05T05:18:03.096Z,12.65
2023-03-05T05:20:30.256Z,12.37
2023-03-05T05:22:57.431Z,14.07
2023-03-05T05:25:24.726Z,11.02
2023-03-05T05:27:51.973Z,13.48
2023-03-05T05:30:19.095Z,13.90
2023-03-05T05:32:46.374Z,12.53
2023-03-05T05:35:13.571Z,13.27
2023-03-05T05:37:40.834Z,8.73
2023-03-05T05:40:08.803Z,13.52
2023-03-05T05:42:36.051Z,10.68
2023-03-05T05:45:03.728Z,9.57
2023-03-05T05:47:31.041Z,11.25
2023-03-05T05:49:58.312Z,12.77
2023-03-05T05:52:25.640Z,12.60
2023-03-05T05:54:52.839Z,10.10
2023-03-05T05:57:20.028Z,12.00
2023-03-05T05:59:47.404Z,11.77
2023-03-05T06:02:14.643Z,11.82
2023-03-05T06:04:41.816Z,13.00
2023-03-05T06:07:09.073Z,9.38
2023-03-05T06:09:36.713Z,10.33
2023-03-05T06:12:04.406Z,8.70
2023-03-05T06:14:31.556Z,9.27
2023-03-05T06:16:58.799Z,9.30
2023-03-05T06:19:26.090Z,11.98
2023-03-05T06:21:53.263Z,10.03
2023-03-05T06:24:20.459Z,10.23
2023-03-05T06:26:48.587Z,9.77
2023-03-05T06:29:16.114Z,10.23
2023-03-05T06:31:43.405Z,9.55
2023-03-05T06:34:10.915Z,9.10
2023-03-05T06:36:38.794Z,14.30
2023-03-05T06:39:06.502Z,12.07
2023-03-05T06:41:33.711Z,12.10
2023-03-05T06:44:03.141Z,8.05
2023-03-05T06:46:33.354Z,11.05
2023-03-05T06:49:02.316Z,11.83
2023-03-05T06:51:35.813Z,11.95
2023-03-05T06:54:07.629Z,10.57
2023-03-05T06:56:36.666Z,9.38
2023-03-05T06:59:04.744Z,11.75
2023-03-05T07:01:31.951Z,10.27
2023-03-05T07:04:00.415Z,11.20
2023-03-05T07:06:27.978Z,9.95
2023-03-05T07:08:56.481Z,8.88
2023-03-05T07:11:24.776Z,8.07
2023-03-05T07:13:52.051Z,8.97
2023-03-05T07:16:21.755Z,9.30
2023-03-05T07:18:49.362Z,11.38
2023-03-05T07:21:22.301Z,8.38
2023-03-05T07:23:50.164Z,10.73
2023-03-05T07:26:17.611Z,9.33
2023-03-05T07:28:44.814Z,9.70
2023-03-05T07:31:21.938Z,10.68
2023-03-05T07:33:50.319Z,10.10
2023-03-05T07:36:17.975Z,13.13
2023-03-05T07:38:45.939Z,13.77
2023-03-05T07:41:19.766Z,11.05
2023-03-05T07:43:48.735Z,10.82
2023-03-05T07:46:18.027Z,10.55
2023-03-05T07:48:45.336Z,12.02
2023-03-05T07:51:19.968Z,9.37
2023-03-05T07:53:49.265Z,10.77
2023-03-05T07:56:24.279Z,9.90
2023-03-05T07:58:51.958Z,11.85
2023-03-05T08:01:19.156Z,10.77
2023-03-05T08:03:46.422Z,10.80
2023-03-05T08:06:13.602Z,10.45
2023-03-05T08:08:40.880Z,11.45
2023-03-05T08:11:13.705Z,12.35
2023-03-05T08:13:41.214Z,11.10
2023-03-05T08:16:11.687Z,12.73
2023-03-05T08:18:39.014Z,11.85
2023-03-05T08:21:06.692Z,13.00
2023-03-05T08:23:34.588Z,11.63
2023-03-05T08:26:01.812Z,13.10
2023-03-05T08:28:29.014Z,16.83
2023-03-05T08:30:56.185Z,11.95
2023-03-05T08:33:23.379Z,10.35
2023-03-05T08:35:50.552Z,12.88
2023-03-05T08:38:20.020Z,10.90
2023-03-05T08:40:48.252Z,9.27
2023-03-05T08:43:17.486Z,10.38
2023-03-05T08:45:44.626Z,9.45
2023-03-05T08:48:11.810Z,10.60
2023-03-05T08:50:39.331Z,10.70
2023-03-05T08:53:07.019Z,14.83
2023-03-05T08:55:34.378Z,10.68
2023-03-05T08:58:01.570Z,14.02
2023-03-05T09:00:28.718Z,11.35
2023-03-05T09:02:56.113Z,10.20
2023-03-05T09:05:23.257Z,14.10
2023-03-05T09:07:50.472Z,11.77
2023-03-05T09:10:18.521Z,12.20
2023-03-05T09:12:45.720Z,10.02
2023-03-05T09:15:12.894Z,10.35
2023-03-05T09:17:42.033Z,11.23
2023-03-05T09:20:12.705Z,11.07
2023-03-05T09:22:40.195Z,10.82
2023-03-05T09:25:08.899Z,13.35
2023-03-05T09:27:36.933Z,12.57
2023-03-05T09:30:06.522Z,9.80
2023-03-05T09:32:33.751Z,13.10
2023-03-05T09:35:00.943Z,11.00
2023-03-05T09:37:29.397Z,12.30
2023-03-05T09:39:57.625Z,11.43
2023-03-05T09:42:55.890Z,10.17
2023-03-05T09:45:55.168Z,12.45
2023-03-05T09:48:48.350Z,10.82
2023-03-05T09:51:29.335Z,10.63
2023-03-05T09:54:18.951Z,8.60
2023-03-05T09:56:50.378Z,8.70
2023-03-05T09:59:35.958Z,10.82
2023-03-05T10:02:12.524Z,10.38
2023-03-05T10:04:51.724Z,9.02
2023-03-05T10:07:22.739Z,10.45
2023-03-05T10:09:58.276Z,10.63
2023-03-05T10:12:48.839Z,8.40
2023-03-05T10:15:25.727Z,9.95
2023-03-05T10:18:20.500Z,10.00
2023-03-05T10:21:04.320Z,9.25
2023-03-05T10:24:00.671Z,10.07
2023-03-05T10:26:57.591Z,11.10
2023-03-05T10:29:46.213Z,7.07
2023-03-05T10:32:22.269Z,8.02
2023-03-05T10:35:17.087Z,8.68
2023-03-05T10:38:05.374Z,9.03
2023-03-05T10:40:41.897Z,7.82
2023-03-05T10:43:29.596Z,6.05
2023-03-05T10:45:58.423Z,5.38
2023-03-05T10:48:38.058Z,6.38
2023-03-05T10:51:30.199Z,6.03
2023-03-05T10:54:12.979Z,6.65
2023-03-05T10:56:40.210Z,6.60
2023-03-05T10:59:07.381Z,7.88
2023-03-05T11:01:37.372Z,8.45
2023-03-05T11:04:26.204Z,8.13
2023-03-05T11:06:53.424Z,6.40
2023-03-05T11:09:32.741Z,8.43
2023-03-05T11:12:21.265Z,6.03
2023-03-05T11:15:22.741Z,7.50
2023-03-05T11:18:25.561Z,7.77
2023-03-05T11:20:52.897Z,7.10
2023-03-05T11:23:26.235Z,8.57
2023-03-05T11:26:22.164Z,7.63
2023-03-05T11:28:52.021Z,7.03
2023-03-05T11:31:19.250Z,8.43
2023-03-05T11:33:59.075Z,6.38
2023-03-05T11:36:34.565Z,8.43
2023-03-05T11:39:10.159Z,6.70
2023-03-05T11:41:44.104Z,7.10
2023-03-05T11:44:19.438Z,6.47
2023-03-05T11:46:52.815Z,5.72
2023-03-05T11:49:23.295Z,6.38
2023-03-05T11:52:00.120Z,6.40
2023-03-05T11:54:33.854Z,7.28
2023-03-05T11:57:03.166Z,7.73
2023-03-05T11:59:36.279Z,7.80
2023-03-05T12:02:06.626Z,6.72
2023-03-05T12:04:35.286Z,6.70
2023-03-05T12:07:04.095Z,6.90
2023-03-05T12:09:47.659Z,6.57
2023-03-05T12:12:36.287Z,6.60
2023-03-05T12:15:12.506Z,6.15
2023-03-05T12:18:04.828Z,8.35
2023-03-05T12:20:54.062Z,7.78
2023-03-05T12:23:22.720Z,7.57
2023-03-05T12:25:53.117Z,5.72
2023-03-05T12:28:29.347Z,7.70
2023-03-05T12:30:59.980Z,5.53
2023-03-05T12:33:43.962Z,8.10
2023-03-05T12:36:17.306Z,7.10
2023-03-05T12:38:51.171Z,6.95
2023-03-05T12:41:25.834Z,5.82
2023-03-05T12:44:05.411Z,9.35
2023-03-05T12:46:37.449Z,6.05
2023-03-05T12:49:23.527Z,5.90
2023-03-05T12:51:53.057Z,7.30
2023-03-05T12:54:35.442Z,7.40
2023-03-05T12:57:24.398Z,6.63
2023-03-05T12:59:58.605Z,8.23
2023-03-05T13:02:34.751Z,7.37
2023-03-05T13:05:16.927Z,8.45
2023-03-05T13:07:44.111Z,13.20
2023-03-05T13:10:28.938Z,6.20
2023-03-05T13:12:58.573Z,8.88
2023-03-05T13:15:26.572Z,7.83
2023-03-05T13:17:57.852Z,8.30
2023-03-05T13:20:34.276Z,10.02
2023-03-05T13:23:14.044Z,7.70
2023-03-05T13:25:41.391Z,10.43
2023-03-05T13:28:14.351Z,6.87
2023-03-05T13:31:02.698Z,6.90
2023-03-05T13:33:34.885Z,9.73
2023-03-05T13:36:02.952Z,10.45
2023-03-05T13:38:40.343Z,6.80
2023-03-05T13:41:19.690Z,8.67
2023-03-05T13:44:01.890Z,7.80
2023-03-05T13:46:38.719Z,7.60
2023-03-05T13:49:26.078Z,5.10
2023-03-05T13:51:56.520Z,6.88
2023-03-05T13:54:25.378Z,6.47
2023-03-05T13:56:59.157Z,6.10
2023-03-05T13:59:30.756Z,6.53
2023-03-05T14:02:15.787Z,7.93
2023-03-05T14:04:44.829Z,6.70
2023-03-05T14:07:26.891Z,5.97
2023-03-05T14:09:54.376Z,6.72
2023-03-05T14:12:21.502Z,8.30
2023-03-05T14:14:49.095Z,7.00
2023-03-05T14:17:35.258Z,8.55
2023-03-05T14:20:12.835Z,8.30
2023-03-05T14:22:45.942Z,7.70
2023-03-05T14:25:36.438Z,7.28
2023-03-05T14:28:06.727Z,5.28
2023-03-05T14:30:36.232Z,5.50
2023-03-05T14:33:03.790Z,6.20
2023-03-05T14:35:31.250Z,6.70
2023-03-05T14:38:00.053Z,6.50
2023-03-05T14:40:33.628Z,8.93
2023-03-05T14:43:04.027Z,8.65
2023-03-05T14:45:33.987Z,8.20
2023-03-05T14:48:04.174Z,6.68
2023-03-05T14:50:56.293Z,7.13
2023-03-05T14:53:31.326Z,6.45
2023-03-05T14:55:58.551Z,6.13
2023-03-05T14:58:29.160Z,6.43
2023-03-05T15:00:57.011Z,7.53
2023-03-05T15:03:25.413Z,7.28
2023-03-05T15:05:55.156Z,6.15
2023-03-05T15:08:32.279Z,6.22
2023-03-05T15:11:00.365Z,8.13
2023-03-05T15:13:27.701Z,6.75
2023-03-05T15:15:55.475Z,8.18
2023-03-05T15:18:23.748Z,6.72
2023-03-05T15:20:54.052Z,8.27
2023-03-05T15:23:21.384Z,8.47
2023-03-05T15:25:48.911Z,7.93
2023-03-05T15:28:16.304Z,6.55
2023-03-05T15:30:46.351Z,9.02
2023-03-05T15:33:15.701Z,7.30
2023-03-05T15:35:43.443Z,7.13
2023-03-05T15:38:10.591Z,8.90
2023-03-05T15:40:37.772Z,7.65
2023-03-05T15:43:05.027Z,8.13
2023-03-05T15:45:32.618Z,7.95
2023-03-05T15:47:59.833Z,8.00
2023-03-05T15:50:27.302Z,6.70
2023-03-05T15:52:54.494Z,7.15
2023-03-05T15:55:21.794Z,8.55
2023-03-05T15:57:50.878Z,7.38
2023-03-05T16:00:25.537Z,7.83
2023-03-05T16:02:53.170Z,9.27
2023-03-05T16:05:20.501Z,9.50
2023-03-05T16:07:51.167Z,9.48
2023-03-05T16:10:22.160Z,9.07
2023-03-05T16:12:53.183Z,10.07
2023-03-05T16:15:21.581Z,7.75
2023-03-05T16:17:53.294Z,9.80
2023-03-05T16:20:21.512Z,8.55
2023-03-05T16:22:49.624Z,10.98
2023-03-05T16:25:17.805Z,10.57
2023-03-05T16:27:45.291Z,9.48
2023-03-05T16:30:15.370Z,10.90
2023-03-05T16:32:43.192Z,9.70
2023-03-05T16:35:12.305Z,8.32
2023-03-05T16:37:40.842Z,7.23
2023-03-05T16:40:10.480Z,8.32
2023-03-05T16:42:37.837Z,8.00
2023-03-05T16:45:06.062Z,7.10
2023-03-05T16:47:33.902Z,10.18
2023-03-05T16:50:01.165Z,10.27
2023-03-05T16:52:28.886Z,8.40
2023-03-05T16:54:56.219Z,8.55
2023-03-05T16:57:25.421Z,11.80
2023-03-05T16:59:54.107Z,9.93
2023-03-05T17:02:21.523Z,11.83
2023-03-05T17:04:50.338Z,12.00
2023-03-05T17:07:18.076Z,11.57
2023-03-05T17:09:47.813Z,10.48
2023-03-05T17:12:15.046Z,9.50
2023-03-05T17:14:42.194Z,7.20
2023-03-05T17:17:09.330Z,7.40
2023-03-05T17:19:36.968Z,8.70
2023-03-05T17:22:04.572Z,8.25
2023-03-05T17:24:32.974Z,8.57
2023-03-05T17:27:00.947Z,10.27
2023-03-05T17:29:28.589Z,8.93
2023-03-05T17:31:55.787Z,7.30
2023-03-05T17:34:35.455Z,8.70
2023-03-05T17:37:04.798Z,9.93
2023-03-05T17:39:32.540Z,8.77
2023-03-05T17:42:00.198Z,7.78
2023-03-05T17:44:27.353Z,8.82
2023-03-05T17:46:54.639Z,9.63
2023-03-05T17:49:21.894Z,9.80
2023-03-05T17:51:49.128Z,9.87
2023-03-05T17:54:16.328Z,13.05
2023-03-05T17:56:43.534Z,14.13
2023-03-05T17:59:10.706Z,13.80
2023-03-05T18:01:38.005Z,12.52
2023-03-05T18:04:05.445Z,13.90
2023-03-05T18:06:32.828Z,11.38
2023-03-05T18:08:59.979Z,10.90
2023-03-05T18:11:27.672Z,13.38
2023-03-05T18:13:54.940Z,13.23
2023-03-05T18:16:23.465Z,12.40
2023-03-05T18:18:51.389Z,11.00
2023-03-05T18:21:24.193Z,12.40
2023-03-05T18:23:51.587Z,16.60
2023-03-05T18:26:18.790Z,14.75
2023-03-05T18:28:46.179Z,13.53
2023-03-05T18:31:13.367Z,13.80
2023-03-05T18:33:41.056Z,16.95
2023-03-05T18:36:10.840Z,14.75
2023-03-05T18:38:38.580Z,14.38
2023-03-05T18:41:06.442Z,13.70
2023-03-05T18:43:33.724Z,16.27
2023-03-05T18:46:04.884Z,15.25
2023-03-05T18:48:32.327Z,15.57
2023-03-05T18:51:01.283Z,12.90
2023-03-05T18:53:29.610Z,14.30
2023-03-05T18:55:56.761Z,13.00
2023-03-05T18:58:25.914Z,14.27
2023-03-05T19:00:53.268Z,13.68
2023-03-05T19:03:22.879Z,12.88
2023-03-05T19:05:51.239Z,11.50
2023-03-05T19:08:18.815Z,14.05
2023-03-05T19:10:46.723Z,13.80
2023-03-05T19:13:40.026Z,13.38
2023-03-05T19:16:08.550Z,12.95
2023-03-05T19:19:17.680Z,11.97
2023-03-05T19:21:49.989Z,12.25
2023-03-05T19:24:17.634Z,13.80
2023-03-05T19:26:45.266Z,16.02
2023-03-05T19:29:12.983Z,11.52
2023-03-05T19:31:40.927Z,10.77
2023-03-05T19:34:08.531Z,10.90
2023-03-05T19:36:35.778Z,10.68
2023-03-05T19:39:07.147Z,11.02
2023-03-05T19:41:35.157Z,10.38
2023-03-05T19:44:03.263Z,9.60
2023-03-05T19:46:31.083Z,12.63
2023-03-05T19:48:58.470Z,10.30
2023-03-05T19:51:26.934Z,11.02
2023-03-05T19:53:54.190Z,12.98
2023-03-05T19:56:21.536Z,15.77
2023-03-05T19:58:49.262Z,12.35
2023-03-05T20:01:16.517Z,15.90
2023-03-05T20:03:47.561Z,25.00
2023-03-05T20:06:15.371Z,20.65
2023-03-05T20:08:42.723Z,23.70
2023-03-05T20:11:11.941Z,21.67
2023-03-05T20:13:39.975Z,31.88
2023-03-05T20:16:18.608Z,90.93
2023-03-05T20:18:46.971Z,84.93
2023-03-05T20:21:21.513Z,96.30
2023-03-05T20:23:58.060Z,95.00
2023-03-05T20:26:26.221Z,72.93
2023-03-05T20:28:54.558Z,68.00
2023-03-05T20:31:24.384Z,70.75
2023-03-05T20:33:51.686Z,67.97
2023-03-05T20:36:18.868Z,67.10
2023-03-05T20:38:46.502Z,60.40
2023-03-05T20:41:17.113Z,62.63
2023-03-05T20:43:46.634Z,61.42
2023-03-05T20:46:22.983Z,74.63
2023-03-05T20:48:53.423Z,94.93
2023-03-05T20:51:24.420Z,78.07
2023-03-05T20:53:54.237Z,78.72
2023-03-05T20:56:21.361Z,75.22
2023-03-05T20:58:48.545Z,77.97
2023-03-05T21:01:15.654Z,67.57
2023-03-05T21:03:42.839Z,85.38
2023-03-05T21:06:09.958Z,82.45
2023-03-05T21:08:37.147Z,60.70
2023-03-05T21:11:08.760Z,78.10
2023-03-05T21:13:36.766Z,73.97
2023-03-05T21:16:09.043Z,59.22
2023-03-05T21:18:36.487Z,49.30
2023-03-05T21:21:04.025Z,39.42
2023-03-05T21:23:31.248Z,36.10
2023-03-05T21:25:58.477Z,31.42
2023-03-05T21:28:25.734Z,30.38
2023-03-05T21:30:54.176Z,31.05
2023-03-05T21:33:23.844Z,24.63
2023-03-05T21:35:56.521Z,25.00
2023-03-05T21:38:25.626Z,23.80
2023-03-05T21:40:53.953Z,20.05
2023-03-05T21:43:23.656Z,19.98
2023-03-05T21:45:53.502Z,21.63
2023-03-05T21:48:21.856Z,19.03
2023-03-05T21:50:49.697Z,22.60
2023-03-05T21:53:17.991Z,20.00
2023-03-05T21:56:25.401Z,20.52
2023-03-05T21:58:53.951Z,23.55
2023-03-05T22:01:21.535Z,21.57
2023-03-05T22:03:49.860Z,20.30
2023-03-05T22:06:18.858Z,19.77
2023-03-05T22:08:47.116Z,22.60
2023-03-05T22:11:16.593Z,23.00
2023-03-05T22:13:44.222Z,21.93
2023-03-05T22:16:11.499Z,22.90
2023-03-05T22:18:38.920Z,21.98
2023-03-05T22:21:14.787Z,21.63
2023-03-05T22:23:42.007Z,21.73
2023-03-05T22:26:09.216Z,24.57
2023-03-05T22:28:38.878Z,23.02
2023-03-05T22:31:06.497Z,20.90
2023-03-05T22:33:33.755Z,21.25
2023-03-05T22:36:06.598Z,20.73
2023-03-05T22:38:33.933Z,22.93
2023-03-05T22:41:01.072Z,23.35
2023-03-05T22:43:28.231Z,21.38
2023-03-05T22:45:55.385Z,23.98
2023-03-05T22:48:22.542Z,24.50
2023-03-05T22:50:55.061Z,26.77
2023-03-05T22:53:22.729Z,24.60
2023-03-05T22:55:50.575Z,26.27
2023-03-05T22:58:17.783Z,25.92
2023-03-05T23:00:44.949Z,28.33
2023-03-05T23:03:12.230Z,25.90
2023-03-05T23:05:39.623Z,26.17
2023-03-05T23:08:07.518Z,21.80
2023-03-05T23:10:34.999Z,21.30
2023-03-05T23:13:02.578Z,19.53
2023-03-05T23:15:32.664Z,21.00
2023-03-05T23:17:59.871Z,20.75
2023-03-05T23:20:30.433Z,18.85
2023-03-05T23:22:58.074Z,18.10
2023-03-05T23:25:29.424Z,20.43
2023-03-05T23:27:58.042Z,24.67
2023-03-05T23:30:34.523Z,21.35
2023-03-05T23:33:17.988Z,20.75
2023-03-05T23:35:57.367Z,18.75
2023-03-05T23:38:26.339Z,19.52
2023-03-05T23:40:55.884Z,15.47
2023-03-05T23:43:24.846Z,14.98
2023-03-05T23:45:56.172Z,15.20
2023-03-05T23:48:25.251Z,14.02
2023-03-05T23:50:53.018Z,14.10
2023-03-05T23:53:24.099Z,14.40
2023-03-05T23:55:52.247Z,16.75
2023-03-05T23:58:20.516Z,16.38
